sensor_id;sensor_type;location;lat;lon;timestamp;temperature;humidity
69543;SHT31;56762;49.494;11.768;2023-07-31T00:02:13;15.41;78.10
69543;SHT31;56762;49.494;11.768;2023-07-31T00:04:42;15.41;77.83
69543;SHT31;56762;49.494;11.768;2023-07-31T00:07:11;15.42;77.68
69543;SHT31;56762;49.494;11.768;2023-07-31T00:09:38;15.37;77.46
69543;SHT31;56762;49.494;11.768;2023-07-31T00:12:07;15.32;78.36
69543;SHT31;56762;49.494;11.768;2023-07-31T00:14:35;15.28;78.07
69543;SHT31;56762;49.494;11.768;2023-07-31T00:17:04;15.20;78.31
69543;SHT31;56762;49.494;11.768;2023-07-31T00:19:32;15.17;78.11
69543;SHT31;56762;49.494;11.768;2023-07-31T00:22:01;15.16;78.32
69543;SHT31;56762;49.494;11.768;2023-07-31T00:24:29;15.17;78.45
69543;SHT31;56762;49.494;11.768;2023-07-31T00:26:57;15.14;78.31
69543;SHT31;56762;49.494;11.768;2023-07-31T00:29:25;15.11;79.23
69543;SHT31;56762;49.494;11.768;2023-07-31T00:31:52;15.03;79.40
69543;SHT31;56762;49.494;11.768;2023-07-31T00:34:20;14.94;79.34
69543;SHT31;56762;49.494;11.768;2023-07-31T00:36:48;14.90;79.56
69543;SHT31;56762;49.494;11.768;2023-07-31T00:39:17;14.90;79.49
69543;SHT31;56762;49.494;11.768;2023-07-31T00:41:45;14.87;79.80
69543;SHT31;56762;49.494;11.768;2023-07-31T00:44:13;14.86;79.92
69543;SHT31;56762;49.494;11.768;2023-07-31T00:46:41;14.80;79.24
69543;SHT31;56762;49.494;11.768;2023-07-31T00:49:10;14.75;79.22
69543;SHT31;56762;49.494;11.768;2023-07-31T00:51:38;14.76;79.87
69543;SHT31;56762;49.494;11.768;2023-07-31T00:54:06;14.76;79.51
69543;SHT31;56762;49.494;11.768;2023-07-31T00:56:35;14.75;79.73
69543;SHT31;56762;49.494;11.768;2023-07-31T00:59:04;14.75;79.83
69543;SHT31;56762;49.494;11.768;2023-07-31T01:01:32;14.73;80.18
69543;SHT31;56762;49.494;11.768;2023-07-31T01:04:00;14.72;80.57
69543;SHT31;56762;49.494;11.768;2023-07-31T01:06:33;14.75;79.98
69543;SHT31;56762;49.494;11.768;2023-07-31T01:09:07;14.76;80.03
69543;SHT31;56762;49.494;11.768;2023-07-31T01:11:52;14.75;79.27
69543;SHT31;56762;49.494;11.768;2023-07-31T01:14:20;14.77;78.94
69543;SHT31;56762;49.494;11.768;2023-07-31T01:16:48;14.77;78.84
69543;SHT31;56762;49.494;11.768;2023-07-31T01:19:18;14.80;79.39
69543;SHT31;56762;49.494;11.768;2023-07-31T01:22:04;14.77;79.05
69543;SHT31;56762;49.494;11.768;2023-07-31T01:24:44;14.79;79.27
69543;SHT31;56762;49.494;11.768;2023-07-31T01:27:23;14.80;79.00
69543;SHT31;56762;49.494;11.768;2023-07-31T01:29:56;14.81;79.22
69543;SHT31;56762;49.494;11.768;2023-07-31T01:32:25;14.81;79.69
69543;SHT31;56762;49.494;11.768;2023-07-31T01:34:57;14.86;79.26
69543;SHT31;56762;49.494;11.768;2023-07-31T01:37:28;14.91;78.60
69543;SHT31;56762;49.494;11.768;2023-07-31T01:43:38;14.94;78.61
69543;SHT31;56762;49.494;11.768;2023-07-31T01:46:07;14.97;78.59
69543;SHT31;56762;49.494;11.768;2023-07-31T01:48:34;14.93;78.66
69543;SHT31;56762;49.494;11.768;2023-07-31T01:51:03;14.94;78.46
69543;SHT31;56762;49.494;11.768;2023-07-31T01:53:31;14.98;78.95
69543;SHT31;56762;49.494;11.768;2023-07-31T01:55:59;14.96;79.68
69543;SHT31;56762;49.494;11.768;2023-07-31T01:58:27;14.98;79.10
69543;SHT31;56762;49.494;11.768;2023-07-31T02:00:56;14.96;79.31
69543;SHT31;56762;49.494;11.768;2023-07-31T02:03:24;14.97;79.22
69543;SHT31;56762;49.494;11.768;2023-07-31T02:05:54;14.97;79.44
69543;SHT31;56762;49.494;11.768;2023-07-31T02:08:21;15.00;79.56
69543;SHT31;56762;49.494;11.768;2023-07-31T02:10:49;14.97;79.46
69543;SHT31;56762;49.494;11.768;2023-07-31T02:13:17;15.01;79.86
69543;SHT31;56762;49.494;11.768;2023-07-31T02:15:45;14.97;79.19
69543;SHT31;56762;49.494;11.768;2023-07-31T02:18:14;14.96;79.41
69543;SHT31;56762;49.494;11.768;2023-07-31T02:20:42;15.03;79.02
69543;SHT31;56762;49.494;11.768;2023-07-31T02:23:12;15.03;79.06
69543;SHT31;56762;49.494;11.768;2023-07-31T02:25:40;15.01;79.30
69543;SHT31;56762;49.494;11.768;2023-07-31T02:28:08;15.01;79.01
69543;SHT31;56762;49.494;11.768;2023-07-31T02:30:36;15.01;78.90
69543;SHT31;56762;49.494;11.768;2023-07-31T02:33:04;15.00;78.82
69543;SHT31;56762;49.494;11.768;2023-07-31T02:35:34;15.06;79.24
69543;SHT31;56762;49.494;11.768;2023-07-31T02:38:01;15.08;79.00
69543;SHT31;56762;49.494;11.768;2023-07-31T02:40:29;15.11;78.41
69543;SHT31;56762;49.494;11.768;2023-07-31T02:42:57;15.08;79.23
69543;SHT31;56762;49.494;11.768;2023-07-31T02:45:25;15.06;79.51
69543;SHT31;56762;49.494;11.768;2023-07-31T02:47:53;15.08;79.10
69543;SHT31;56762;49.494;11.768;2023-07-31T02:50:21;15.08;79.34
69543;SHT31;56762;49.494;11.768;2023-07-31T02:52:50;15.08;78.91
69543;SHT31;56762;49.494;11.768;2023-07-31T02:55:18;15.08;79.00
69543;SHT31;56762;49.494;11.768;2023-07-31T02:57:46;15.11;79.01
69543;SHT31;56762;49.494;11.768;2023-07-31T03:00:14;15.16;78.76
69543;SHT31;56762;49.494;11.768;2023-07-31T03:02:41;15.16;78.23
69543;SHT31;56762;49.494;11.768;2023-07-31T03:05:09;15.20;79.01
69543;SHT31;56762;49.494;11.768;2023-07-31T03:07:37;15.23;78.17
69543;SHT31;56762;49.494;11.768;2023-07-31T03:10:08;15.23;77.68
69543;SHT31;56762;49.494;11.768;2023-07-31T03:12:36;15.24;78.51
69543;SHT31;56762;49.494;11.768;2023-07-31T03:15:04;15.26;78.39
69543;SHT31;56762;49.494;11.768;2023-07-31T03:17:32;15.28;78.87
69543;SHT31;56762;49.494;11.768;2023-07-31T03:20:00;15.27;79.05
69543;SHT31;56762;49.494;11.768;2023-07-31T03:22:28;15.31;78.93
69543;SHT31;56762;49.494;11.768;2023-07-31T03:24:55;15.31;79.11
69543;SHT31;56762;49.494;11.768;2023-07-31T03:27:25;15.34;79.16
69543;SHT31;56762;49.494;11.768;2023-07-31T03:29:53;15.37;78.16
69543;SHT31;56762;49.494;11.768;2023-07-31T03:32:21;15.37;77.97
69543;SHT31;56762;49.494;11.768;2023-07-31T03:34:49;15.38;78.37
69543;SHT31;56762;49.494;11.768;2023-07-31T03:37:17;15.38;78.14
69543;SHT31;56762;49.494;11.768;2023-07-31T03:39:45;15.38;78.57
69543;SHT31;56762;49.494;11.768;2023-07-31T03:42:13;15.38;78.39
69543;SHT31;56762;49.494;11.768;2023-07-31T03:44:42;15.39;78.63
69543;SHT31;56762;49.494;11.768;2023-07-31T03:47:10;15.38;77.68
69543;SHT31;56762;49.494;11.768;2023-07-31T03:49:38;15.45;77.64
69543;SHT31;56762;49.494;11.768;2023-07-31T03:52:06;15.47;77.85
69543;SHT31;56762;49.494;11.768;2023-07-31T03:54:34;15.47;77.92
69543;SHT31;56762;49.494;11.768;2023-07-31T03:57:02;15.47;78.12
69543;SHT31;56762;49.494;11.768;2023-07-31T03:59:30;15.52;78.01
69543;SHT31;56762;49.494;11.768;2023-07-31T04:01:59;15.52;77.67
69543;SHT31;56762;49.494;11.768;2023-07-31T04:04:27;15.58;77.54
69543;SHT31;56762;49.494;11.768;2023-07-31T04:06:55;15.59;77.21
69543;SHT31;56762;49.494;11.768;2023-07-31T04:09:22;15.55;77.65
69543;SHT31;56762;49.494;11.768;2023-07-31T04:11:50;15.54;77.89
69543;SHT31;56762;49.494;11.768;2023-07-31T04:14:18;15.54;78.15
69543;SHT31;56762;49.494;11.768;2023-07-31T04:16:46;15.55;78.14
69543;SHT31;56762;49.494;11.768;2023-07-31T04:19:15;15.52;77.97
69543;SHT31;56762;49.494;11.768;2023-07-31T04:21:43;15.51;78.06
69543;SHT31;56762;49.494;11.768;2023-07-31T04:24:11;15.49;78.20
69543;SHT31;56762;49.494;11.768;2023-07-31T04:26:39;15.48;78.30
69543;SHT31;56762;49.494;11.768;2023-07-31T04:29:07;15.51;77.91
69543;SHT31;56762;49.494;11.768;2023-07-31T04:31:35;15.49;78.42
69543;SHT31;56762;49.494;11.768;2023-07-31T04:34:05;15.57;78.54
69543;SHT31;56762;49.494;11.768;2023-07-31T04:36:34;15.54;78.10
69543;SHT31;56762;49.494;11.768;2023-07-31T04:39:03;15.61;78.37
69543;SHT31;56762;49.494;11.768;2023-07-31T04:41:31;15.62;78.22
69543;SHT31;56762;49.494;11.768;2023-07-31T04:43:59;15.63;77.33
69543;SHT31;56762;49.494;11.768;2023-07-31T04:46:27;15.69;77.59
69543;SHT31;56762;49.494;11.768;2023-07-31T04:48:54;15.72;76.98
69543;SHT31;56762;49.494;11.768;2023-07-31T04:51:23;15.79;77.29
69543;SHT31;56762;49.494;11.768;2023-07-31T04:53:53;15.82;76.46
69543;SHT31;56762;49.494;11.768;2023-07-31T04:56:20;15.88;77.25
69543;SHT31;56762;49.494;11.768;2023-07-31T04:58:48;15.96;76.80
69543;SHT31;56762;49.494;11.768;2023-07-31T05:01:16;16.02;77.11
69543;SHT31;56762;49.494;11.768;2023-07-31T05:03:44;16.03;77.19
69543;SHT31;56762;49.494;11.768;2023-07-31T05:06:12;16.10;78.07
69543;SHT31;56762;49.494;11.768;2023-07-31T05:08:40;16.12;77.84
69543;SHT31;56762;49.494;11.768;2023-07-31T05:11:09;16.12;78.41
69543;SHT31;56762;49.494;11.768;2023-07-31T05:13:37;16.13;78.24
69543;SHT31;56762;49.494;11.768;2023-07-31T05:16:04;16.14;78.45
69543;SHT31;56762;49.494;11.768;2023-07-31T05:18:34;16.16;78.72
69543;SHT31;56762;49.494;11.768;2023-07-31T05:21:02;16.16;77.43
69543;SHT31;56762;49.494;11.768;2023-07-31T05:23:30;16.23;78.39
69543;SHT31;56762;49.494;11.768;2023-07-31T05:26:03;16.27;77.77
69543;SHT31;56762;49.494;11.768;2023-07-31T05:28:34;16.31;77.55
69543;SHT31;56762;49.494;11.768;2023-07-31T05:31:03;16.39;77.98
69543;SHT31;56762;49.494;11.768;2023-07-31T05:33:31;16.47;76.71
69543;SHT31;56762;49.494;11.768;2023-07-31T05:35:59;16.68;76.30
69543;SHT31;56762;49.494;11.768;2023-07-31T05:38:27;16.82;75.96
69543;SHT31;56762;49.494;11.768;2023-07-31T05:40:55;16.98;75.23
69543;SHT31;56762;49.494;11.768;2023-07-31T05:43:23;17.09;74.97
69543;SHT31;56762;49.494;11.768;2023-07-31T05:45:52;17.18;74.57
69543;SHT31;56762;49.494;11.768;2023-07-31T05:48:19;17.30;73.94
69543;SHT31;56762;49.494;11.768;2023-07-31T05:50:48;17.40;73.65
69543;SHT31;56762;49.494;11.768;2023-07-31T05:53:15;17.45;72.92
69543;SHT31;56762;49.494;11.768;2023-07-31T05:55:43;17.43;73.68
69543;SHT31;56762;49.494;11.768;2023-07-31T05:58:11;17.42;72.22
69543;SHT31;56762;49.494;11.768;2023-07-31T06:00:39;17.40;73.96
69543;SHT31;56762;49.494;11.768;2023-07-31T06:03:09;17.43;72.86
69543;SHT31;56762;49.494;11.768;2023-07-31T06:05:37;17.42;73.22
69543;SHT31;56762;49.494;11.768;2023-07-31T06:08:05;17.43;74.36
69543;SHT31;56762;49.494;11.768;2023-07-31T06:10:32;17.50;73.87
69543;SHT31;56762;49.494;11.768;2023-07-31T06:13:01;17.56;72.39
69543;SHT31;56762;49.494;11.768;2023-07-31T06:15:29;17.56;72.78
69543;SHT31;56762;49.494;11.768;2023-07-31T06:17:56;17.63;71.86
69543;SHT31;56762;49.494;11.768;2023-07-31T06:20:27;17.67;71.02
69543;SHT31;56762;49.494;11.768;2023-07-31T06:22:55;17.76;72.85
69543;SHT31;56762;49.494;11.768;2023-07-31T06:25:22;17.84;73.13
69543;SHT31;56762;49.494;11.768;2023-07-31T06:27:50;17.90;70.21
69543;SHT31;56762;49.494;11.768;2023-07-31T06:30:18;17.93;70.05
69543;SHT31;56762;49.494;11.768;2023-07-31T06:32:46;18.00;71.02
69543;SHT31;56762;49.494;11.768;2023-07-31T06:35:14;18.04;70.98
69543;SHT31;56762;49.494;11.768;2023-07-31T06:37:43;18.04;70.91
69543;SHT31;56762;49.494;11.768;2023-07-31T06:40:11;18.05;69.45
69543;SHT31;56762;49.494;11.768;2023-07-31T06:42:39;18.15;70.98
69543;SHT31;56762;49.494;11.768;2023-07-31T06:45:08;18.22;70.55
69543;SHT31;56762;49.494;11.768;2023-07-31T06:47:36;18.25;69.50
69543;SHT31;56762;49.494;11.768;2023-07-31T06:50:04;18.27;70.28
69543;SHT31;56762;49.494;11.768;2023-07-31T06:52:32;18.25;70.61
69543;SHT31;56762;49.494;11.768;2023-07-31T06:55:03;18.21;70.26
69543;SHT31;56762;49.494;11.768;2023-07-31T06:57:31;18.18;69.90
69543;SHT31;56762;49.494;11.768;2023-07-31T06:59:59;18.15;69.40
69543;SHT31;56762;49.494;11.768;2023-07-31T07:02:27;18.14;70.14
69543;SHT31;56762;49.494;11.768;2023-07-31T07:04:55;18.15;70.08
69543;SHT31;56762;49.494;11.768;2023-07-31T07:07:36;18.17;69.43
69543;SHT31;56762;49.494;11.768;2023-07-31T07:10:23;18.17;68.55
69543;SHT31;56762;49.494;11.768;2023-07-31T07:13:21;18.18;70.82
69543;SHT31;56762;49.494;11.768;2023-07-31T07:16:41;18.22;69.30
69543;SHT31;56762;49.494;11.768;2023-07-31T07:19:54;18.21;68.97
69543;SHT31;56762;49.494;11.768;2023-07-31T07:22:45;18.25;69.80
69543;SHT31;56762;49.494;11.768;2023-07-31T07:25:57;18.29;69.94
69543;SHT31;56762;49.494;11.768;2023-07-31T07:32:03;18.37;70.04
69543;SHT31;56762;49.494;11.768;2023-07-31T07:35:16;18.38;70.29
69543;SHT31;56762;49.494;11.768;2023-07-31T07:38:03;18.41;69.93
69543;SHT31;56762;49.494;11.768;2023-07-31T07:41:09;18.45;70.41
69543;SHT31;56762;49.494;11.768;2023-07-31T07:43:54;18.52;70.57
69543;SHT31;56762;49.494;11.768;2023-07-31T07:47:09;18.53;71.30
69543;SHT31;56762;49.494;11.768;2023-07-31T07:50:20;18.59;71.02
69543;SHT31;56762;49.494;11.768;2023-07-31T07:52:58;18.60;69.21
69543;SHT31;56762;49.494;11.768;2023-07-31T07:59:22;18.63;68.99
69543;SHT31;56762;49.494;11.768;2023-07-31T08:06:01;18.63;69.07
69543;SHT31;56762;49.494;11.768;2023-07-31T08:08:50;18.68;69.13
69543;SHT31;56762;49.494;11.768;2023-07-31T08:11:50;18.73;68.98
69543;SHT31;56762;49.494;11.768;2023-07-31T08:15:06;18.76;69.76
69543;SHT31;56762;49.494;11.768;2023-07-31T08:18:36;18.80;70.37
69543;SHT31;56762;49.494;11.768;2023-07-31T08:22:11;18.86;69.84
69543;SHT31;56762;49.494;11.768;2023-07-31T08:25:46;18.86;69.57
69543;SHT31;56762;49.494;11.768;2023-07-31T08:28:42;18.95;68.26
69543;SHT31;56762;49.494;11.768;2023-07-31T08:31:58;18.95;67.81
69543;SHT31;56762;49.494;11.768;2023-07-31T08:35:20;18.96;68.69
69543;SHT31;56762;49.494;11.768;2023-07-31T08:38:14;19.00;69.59
69543;SHT31;56762;49.494;11.768;2023-07-31T08:41:16;19.04;69.29
69543;SHT31;56762;49.494;11.768;2023-07-31T08:44:21;19.04;68.92
69543;SHT31;56762;49.494;11.768;2023-07-31T08:47:39;19.06;68.27
69543;SHT31;56762;49.494;11.768;2023-07-31T08:50:55;19.11;68.81
69543;SHT31;56762;49.494;11.768;2023-07-31T08:53:49;19.16;69.12
69543;SHT31;56762;49.494;11.768;2023-07-31T08:56:51;19.20;68.65
69543;SHT31;56762;49.494;11.768;2023-07-31T08:59:40;19.24;69.03
69543;SHT31;56762;49.494;11.768;2023-07-31T09:02:36;19.31;68.87
69543;SHT31;56762;49.494;11.768;2023-07-31T09:08:41;19.31;67.12
69543;SHT31;56762;49.494;11.768;2023-07-31T09:11:41;19.32;67.58
69543;SHT31;56762;49.494;11.768;2023-07-31T09:14:28;19.35;68.37
69543;SHT31;56762;49.494;11.768;2023-07-31T09:17:08;19.31;68.56
69543;SHT31;56762;49.494;11.768;2023-07-31T09:19:45;19.34;68.62
69543;SHT31;56762;49.494;11.768;2023-07-31T09:22:51;19.34;68.67
69543;SHT31;56762;49.494;11.768;2023-07-31T09:25:54;19.32;68.50
69543;SHT31;56762;49.494;11.768;2023-07-31T09:29:25;19.35;66.38
69543;SHT31;56762;49.494;11.768;2023-07-31T09:35:39;19.43;67.39
69543;SHT31;56762;49.494;11.768;2023-07-31T09:39:02;19.46;67.56
69543;SHT31;56762;49.494;11.768;2023-07-31T09:41:59;19.48;66.44
69543;SHT31;56762;49.494;11.768;2023-07-31T09:45:18;19.47;65.20
69543;SHT31;56762;49.494;11.768;2023-07-31T09:48:30;19.48;66.31
69543;SHT31;56762;49.494;11.768;2023-07-31T09:51:36;19.50;66.13
69543;SHT31;56762;49.494;11.768;2023-07-31T09:54:44;19.50;68.30
69543;SHT31;56762;49.494;11.768;2023-07-31T09:57:19;19.48;67.59
69543;SHT31;56762;49.494;11.768;2023-07-31T10:00:20;19.51;67.39
69543;SHT31;56762;49.494;11.768;2023-07-31T10:03:15;19.55;67.02
69543;SHT31;56762;49.494;11.768;2023-07-31T10:06:14;19.62;66.66
69543;SHT31;56762;49.494;11.768;2023-07-31T10:09:35;19.67;65.07
69543;SHT31;56762;49.494;11.768;2023-07-31T10:12:19;19.74;65.26
69543;SHT31;56762;49.494;11.768;2023-07-31T10:15:09;19.78;64.85
69543;SHT31;56762;49.494;11.768;2023-07-31T10:18:27;19.81;66.51
69543;SHT31;56762;49.494;11.768;2023-07-31T10:24:52;19.91;65.50
69543;SHT31;56762;49.494;11.768;2023-07-31T10:28:10;19.89;64.77
69543;SHT31;56762;49.494;11.768;2023-07-31T10:31:10;19.93;64.57
69543;SHT31;56762;49.494;11.768;2023-07-31T10:34:14;19.96;64.14
69543;SHT31;56762;49.494;11.768;2023-07-31T10:37:25;20.04;66.09
69543;SHT31;56762;49.494;11.768;2023-07-31T10:40:37;20.06;65.33
69543;SHT31;56762;49.494;11.768;2023-07-31T10:43:37;20.04;64.63
69543;SHT31;56762;49.494;11.768;2023-07-31T10:47:57;20.00;65.14
69543;SHT31;56762;49.494;11.768;2023-07-31T10:50:16;19.99;64.88
69543;SHT31;56762;49.494;11.768;2023-07-31T10:53:43;19.99;65.39
69543;SHT31;56762;49.494;11.768;2023-07-31T10:57:02;20.00;64.54
69543;SHT31;56762;49.494;11.768;2023-07-31T11:03:43;20.09;65.82
69543;SHT31;56762;49.494;11.768;2023-07-31T11:06:34;20.15;65.81
69543;SHT31;56762;49.494;11.768;2023-07-31T11:12:30;20.15;65.48
69543;SHT31;56762;49.494;11.768;2023-07-31T11:15:16;20.13;65.90
69543;SHT31;56762;49.494;11.768;2023-07-31T11:18:17;20.18;65.44
69543;SHT31;56762;49.494;11.768;2023-07-31T11:21:14;20.20;64.99
69543;SHT31;56762;49.494;11.768;2023-07-31T11:24:12;20.25;63.96
69543;SHT31;56762;49.494;11.768;2023-07-31T11:27:09;20.30;63.43
69543;SHT31;56762;49.494;11.768;2023-07-31T11:30:10;20.36;63.56
69543;SHT31;56762;49.494;11.768;2023-07-31T11:33:05;20.36;63.01
69543;SHT31;56762;49.494;11.768;2023-07-31T11:35:48;20.39;62.82
69543;SHT31;56762;49.494;11.768;2023-07-31T11:38:38;20.43;63.04
69543;SHT31;56762;49.494;11.768;2023-07-31T11:41:37;20.44;63.54
69543;SHT31;56762;49.494;11.768;2023-07-31T11:44:39;20.44;64.07
69543;SHT31;56762;49.494;11.768;2023-07-31T11:50:51;20.47;63.30
69543;SHT31;56762;49.494;11.768;2023-07-31T11:53:31;20.44;63.06
69543;SHT31;56762;49.494;11.768;2023-07-31T11:59:35;20.49;62.53
69543;SHT31;56762;49.494;11.768;2023-07-31T12:05:55;20.46;63.64
69543;SHT31;56762;49.494;11.768;2023-07-31T12:08:56;20.46;63.74
69543;SHT31;56762;49.494;11.768;2023-07-31T12:12:03;20.44;62.69
69543;SHT31;56762;49.494;11.768;2023-07-31T12:15:07;20.47;61.09
69543;SHT31;56762;49.494;11.768;2023-07-31T12:18:38;20.51;62.56
69543;SHT31;56762;49.494;11.768;2023-07-31T12:21:37;20.51;61.56
69543;SHT31;56762;49.494;11.768;2023-07-31T12:24:09;20.57;61.74
69543;SHT31;56762;49.494;11.768;2023-07-31T12:27:14;20.57;63.96
69543;SHT31;56762;49.494;11.768;2023-07-31T12:30:31;20.57;62.67
69543;SHT31;56762;49.494;11.768;2023-07-31T12:33:32;20.59;63.25
69543;SHT31;56762;49.494;11.768;2023-07-31T12:36:42;20.61;64.21
69543;SHT31;56762;49.494;11.768;2023-07-31T12:39:43;20.59;62.61
69543;SHT31;56762;49.494;11.768;2023-07-31T12:42:39;20.59;61.72
69543;SHT31;56762;49.494;11.768;2023-07-31T12:45:58;20.59;61.80
69543;SHT31;56762;49.494;11.768;2023-07-31T12:49:03;20.57;60.99
69543;SHT31;56762;49.494;11.768;2023-07-31T12:52:11;20.60;61.82
69543;SHT31;56762;49.494;11.768;2023-07-31T12:55:08;20.60;63.55
69543;SHT31;56762;49.494;11.768;2023-07-31T12:58:25;20.61;63.27
69543;SHT31;56762;49.494;11.768;2023-07-31T13:01:24;20.64;60.73
69543;SHT31;56762;49.494;11.768;2023-07-31T13:04:44;20.67;62.43
69543;SHT31;56762;49.494;11.768;2023-07-31T13:07:35;20.63;62.77
69543;SHT31;56762;49.494;11.768;2023-07-31T13:13:28;20.61;62.65
69543;SHT31;56762;49.494;11.768;2023-07-31T13:16:03;20.63;64.27
69543;SHT31;56762;49.494;11.768;2023-07-31T13:19:00;20.64;63.72
69543;SHT31;56762;49.494;11.768;2023-07-31T13:22:10;20.66;62.65
69543;SHT31;56762;49.494;11.768;2023-07-31T13:28:45;20.69;62.30
69543;SHT31;56762;49.494;11.768;2023-07-31T13:31:57;20.69;61.58
69543;SHT31;56762;49.494;11.768;2023-07-31T13:35:21;20.77;61.21
69543;SHT31;56762;49.494;11.768;2023-07-31T13:38:23;20.79;62.62
69543;SHT31;56762;49.494;11.768;2023-07-31T13:44:23;20.90;62.84
69543;SHT31;56762;49.494;11.768;2023-07-31T13:47:24;20.92;61.82
69543;SHT31;56762;49.494;11.768;2023-07-31T13:50:12;20.92;60.51
69543;SHT31;56762;49.494;11.768;2023-07-31T13:52:54;20.94;60.25
69543;SHT31;56762;49.494;11.768;2023-07-31T13:59:02;20.95;62.37
69543;SHT31;56762;49.494;11.768;2023-07-31T14:01:49;20.95;61.87
69543;SHT31;56762;49.494;11.768;2023-07-31T14:05:09;20.94;62.29
69543;SHT31;56762;49.494;11.768;2023-07-31T14:08:09;20.94;62.14
69543;SHT31;56762;49.494;11.768;2023-07-31T14:11:03;20.95;62.57
69543;SHT31;56762;49.494;11.768;2023-07-31T14:13:54;20.92;60.38
69543;SHT31;56762;49.494;11.768;2023-07-31T14:16:41;20.92;60.63
69543;SHT31;56762;49.494;11.768;2023-07-31T14:19:23;20.85;61.47
69543;SHT31;56762;49.494;11.768;2023-07-31T14:22:34;20.83;62.24
69543;SHT31;56762;49.494;11.768;2023-07-31T14:25:35;20.79;61.67
69543;SHT31;56762;49.494;11.768;2023-07-31T14:28:21;20.76;61.31
69543;SHT31;56762;49.494;11.768;2023-07-31T14:31:24;20.71;61.14
69543;SHT31;56762;49.494;11.768;2023-07-31T14:34:41;20.69;61.14
69543;SHT31;56762;49.494;11.768;2023-07-31T14:37:48;20.69;62.08
69543;SHT31;56762;49.494;11.768;2023-07-31T14:40:54;20.69;62.17
69543;SHT31;56762;49.494;11.768;2023-07-31T14:43:58;20.64;62.35
69543;SHT31;56762;49.494;11.768;2023-07-31T14:47:10;20.70;61.63
69543;SHT31;56762;49.494;11.768;2023-07-31T14:50:15;20.77;61.37
69543;SHT31;56762;49.494;11.768;2023-07-31T14:53:07;20.81;60.84
69543;SHT31;56762;49.494;11.768;2023-07-31T14:56:09;20.81;62.03
69543;SHT31;56762;49.494;11.768;2023-07-31T14:58:50;20.85;61.87
69543;SHT31;56762;49.494;11.768;2023-07-31T15:01:41;20.87;61.17
69543;SHT31;56762;49.494;11.768;2023-07-31T15:04:35;20.85;62.28
69543;SHT31;56762;49.494;11.768;2023-07-31T15:07:26;20.88;61.90
69543;SHT31;56762;49.494;11.768;2023-07-31T15:10:27;20.87;61.78
69543;SHT31;56762;49.494;11.768;2023-07-31T15:13:07;20.87;61.84
69543;SHT31;56762;49.494;11.768;2023-07-31T15:16:02;20.87;61.43
69543;SHT31;56762;49.494;11.768;2023-07-31T15:19:03;20.81;61.49
69543;SHT31;56762;49.494;11.768;2023-07-31T15:21:43;20.77;62.05
69543;SHT31;56762;49.494;11.768;2023-07-31T15:24:21;20.77;62.96
69543;SHT31;56762;49.494;11.768;2023-07-31T15:26:49;20.79;62.43
69543;SHT31;56762;49.494;11.768;2023-07-31T15:29:17;20.77;62.35
69543;SHT31;56762;49.494;11.768;2023-07-31T15:31:48;20.77;62.71
69543;SHT31;56762;49.494;11.768;2023-07-31T15:34:16;20.77;63.12
69543;SHT31;56762;49.494;11.768;2023-07-31T15:36:46;20.77;62.78
69543;SHT31;56762;49.494;11.768;2023-07-31T15:39:14;20.76;61.24
69543;SHT31;56762;49.494;11.768;2023-07-31T15:41:43;20.76;61.17
69543;SHT31;56762;49.494;11.768;2023-07-31T15:44:11;20.74;61.64
69543;SHT31;56762;49.494;11.768;2023-07-31T15:46:39;20.76;61.62
69543;SHT31;56762;49.494;11.768;2023-07-31T15:49:07;20.80;62.49
69543;SHT31;56762;49.494;11.768;2023-07-31T15:51:35;20.77;61.29
69543;SHT31;56762;49.494;11.768;2023-07-31T15:54:03;20.77;62.10
69543;SHT31;56762;49.494;11.768;2023-07-31T15:56:32;20.74;62.64
69543;SHT31;56762;49.494;11.768;2023-07-31T15:59:01;20.74;62.26
69543;SHT31;56762;49.494;11.768;2023-07-31T16:01:29;20.76;62.33
69543;SHT31;56762;49.494;11.768;2023-07-31T16:03:57;20.71;62.17
69543;SHT31;56762;49.494;11.768;2023-07-31T16:06:25;20.69;62.45
69543;SHT31;56762;49.494;11.768;2023-07-31T16:08:53;20.64;61.92
69543;SHT31;56762;49.494;11.768;2023-07-31T16:11:21;20.64;62.60
69543;SHT31;56762;49.494;11.768;2023-07-31T16:13:49;20.63;63.19
69543;SHT31;56762;49.494;11.768;2023-07-31T16:16:18;20.63;61.75
69543;SHT31;56762;49.494;11.768;2023-07-31T16:18:47;20.63;61.70
69543;SHT31;56762;49.494;11.768;2023-07-31T16:21:15;20.67;62.07
69543;SHT31;56762;49.494;11.768;2023-07-31T16:23:43;20.69;62.44
69543;SHT31;56762;49.494;11.768;2023-07-31T16:26:11;20.70;62.22
69543;SHT31;56762;49.494;11.768;2023-07-31T16:28:38;20.67;62.90
69543;SHT31;56762;49.494;11.768;2023-07-31T16:31:07;20.67;61.74
69543;SHT31;56762;49.494;11.768;2023-07-31T16:33:36;20.66;62.25
69543;SHT31;56762;49.494;11.768;2023-07-31T16:36:04;20.64;61.85
69543;SHT31;56762;49.494;11.768;2023-07-31T16:38:32;20.66;60.99
69543;SHT31;56762;49.494;11.768;2023-07-31T16:41:00;20.69;61.80
69543;SHT31;56762;49.494;11.768;2023-07-31T16:43:28;20.66;61.86
69543;SHT31;56762;49.494;11.768;2023-07-31T16:45:56;20.66;61.46
69543;SHT31;56762;49.494;11.768;2023-07-31T16:48:24;20.67;61.55
69543;SHT31;56762;49.494;11.768;2023-07-31T16:50:54;20.71;61.85
69543;SHT31;56762;49.494;11.768;2023-07-31T16:53:22;20.71;61.74
69543;SHT31;56762;49.494;11.768;2023-07-31T16:55:50;20.71;61.13
69543;SHT31;56762;49.494;11.768;2023-07-31T16:58:17;20.70;61.13
69543;SHT31;56762;49.494;11.768;2023-07-31T17:00:45;20.69;59.98
69543;SHT31;56762;49.494;11.768;2023-07-31T17:03:13;20.71;61.51
69543;SHT31;56762;49.494;11.768;2023-07-31T17:05:42;20.66;61.06
69543;SHT31;56762;49.494;11.768;2023-07-31T17:08:11;20.61;60.99
69543;SHT31;56762;49.494;11.768;2023-07-31T17:10:41;20.64;59.90
69543;SHT31;56762;49.494;11.768;2023-07-31T17:13:09;20.60;60.52
69543;SHT31;56762;49.494;11.768;2023-07-31T17:15:36;20.57;61.12
69543;SHT31;56762;49.494;11.768;2023-07-31T17:18:04;20.56;61.03
69543;SHT31;56762;49.494;11.768;2023-07-31T17:20:32;20.54;61.34
69543;SHT31;56762;49.494;11.768;2023-07-31T17:23:00;20.54;62.40
69543;SHT31;56762;49.494;11.768;2023-07-31T17:25:29;20.49;62.37
69543;SHT31;56762;49.494;11.768;2023-07-31T17:27:57;20.43;63.12
69543;SHT31;56762;49.494;11.768;2023-07-31T17:30:25;20.37;62.69
69543;SHT31;56762;49.494;11.768;2023-07-31T17:32:53;20.36;62.83
69543;SHT31;56762;49.494;11.768;2023-07-31T17:35:21;20.33;63.10
69543;SHT31;56762;49.494;11.768;2023-07-31T17:37:49;20.29;63.24